LiveATC.Net - Listen to live air traffic control over the Internet!


ICAO: KAFN  IATA: AFN   Airport: Jaffrey Airport-Silver Ranch
City: Jaffrey   State/Province: New Hampshire
Country: United States   Continent: North America
KAFN METAR Weather: KAFN 232352Z AUTO 15007KT 10SM FEW016 BKN022 OVC075 22/20 A3008 RMK AO2 SLP187 60000 T02220200 10256 20222 51012
KAFN Flight Activity (FlightAware)
KAFN Airport Info   (iFlightPlanner)
KAFN VFR Sectional Chart   (iFlightPlanner) 
KAFN IFR Low Chart   (iFlightPlanner) 

MA/NH CTAF 122.8
Feed Status: UP   Listeners: 0
Listen in your browser - HTML5 player (in browser, HTML5)
Click here to listen with your own player (launches your MP3 player)
Archive Access: MA/NH CTAF 122.8
FacilityFrequency
MA/NH Area CTAF122.800

NOTICE

Unauthorized use prohibited. See LiveATC.net Terms of Service


Airport/ARTCC Code
Frequency Search
(e.g., 124.400, 128.75)
Site-wide search
 


Browse Feeds
Top 50 Feeds
HF Oceanic Feeds
Coverage Map
Bad Weather Areas

LiveATC FAQ
Offer LiveATC feed
Contact LiveATC.net
Press Inquiries

LiveATC on iPhone
LiveATC on Android

Windows Phone
Windows 8/10

LiveATC Mobile
(Mobile browser)

ATC Audio Archives
Interesting Recordings

LiveATC Forums


Home Page
About LiveATC.net
Make a Donation
Terms of Use
Privacy Policy

Canadian Air Freqs

AIRMETs/SIGMETs

FAA Airport Status
NAS Status
Arrival Demand


Server Software By:
Icecast.org
Liquidsoap